createdAt,value
2023-12-04T06:28:27.487Z,96625.47
2023-12-04T06:30:31.174Z,96631.19
2023-12-04T06:32:34.528Z,96624.06
2023-12-04T06:34:38.296Z,96618.56
2023-12-04T06:36:42.669Z,96601.38
2023-12-04T06:38:49.933Z,96598.16
2023-12-04T06:40:53.401Z,96594.22
2023-12-04T06:42:55.857Z,96598.66
2023-12-04T06:45:00.642Z,96577.34
2023-12-04T06:47:04.431Z,96568.00
2023-12-04T06:49:08.671Z,96577.81
2023-12-04T06:51:11.779Z,96576.66
2023-12-04T06:53:14.892Z,96571.44
2023-12-04T06:55:17.816Z,96564.72
2023-12-04T06:57:20.727Z,96560.59
2023-12-04T06:59:23.675Z,96573.88
2023-12-04T07:01:28.734Z,96598.28
2023-12-04T07:03:31.719Z,96598.47
2023-12-04T07:05:34.626Z,96595.03
2023-12-04T07:07:37.425Z,96576.66
2023-12-04T07:09:41.695Z,96555.00
2023-12-04T07:11:44.912Z,96561.22
2023-12-04T07:13:47.857Z,96559.59
2023-12-04T07:15:50.768Z,96582.56
2023-12-04T07:17:56.769Z,96592.06
2023-12-04T07:20:00.581Z,96607.78
2023-12-04T07:22:03.570Z,96599.91
2023-12-04T07:24:06.888Z,96580.88
2023-12-04T07:26:10.013Z,96587.63
2023-12-04T07:28:13.055Z,96568.13
2023-12-04T07:30:19.229Z,96551.22
2023-12-04T07:32:22.341Z,96548.44
2023-12-04T07:34:26.647Z,96545.00
2023-12-04T07:36:29.945Z,96571.03
2023-12-04T07:38:33.115Z,96572.19
2023-12-04T07:40:36.087Z,96576.63
2023-12-04T07:42:38.322Z,96569.75
2023-12-04T07:44:41.309Z,96564.16
2023-12-04T07:46:44.299Z,96569.41
2023-12-04T07:48:47.502Z,96562.34
2023-12-04T07:50:51.957Z,96566.13
2023-12-04T07:52:54.960Z,96553.66
2023-12-04T07:54:57.989Z,96531.53
2023-12-04T07:57:01.246Z,96537.91
2023-12-04T07:59:04.264Z,96546.25
2023-12-04T08:01:08.066Z,96548.59
2023-12-04T08:03:11.135Z,96542.84
2023-12-04T08:05:14.726Z,96550.56
2023-12-04T08:07:19.063Z,96545.31
2023-12-04T08:09:21.974Z,96538.25
2023-12-04T08:11:24.938Z,96569.75
2023-12-04T08:13:28.904Z,96585.13
2023-12-04T08:15:30.773Z,96567.41
2023-12-04T08:17:33.855Z,96566.78
2023-12-04T08:19:38.937Z,96570.06
2023-12-04T08:21:41.978Z,96580.41
2023-12-04T08:23:45.592Z,96577.09
2023-12-04T08:25:48.486Z,96583.84
2023-12-04T08:27:52.420Z,96593.16
2023-12-04T08:29:55.372Z,96598.72
2023-12-04T08:31:58.223Z,96601.34
2023-12-04T08:34:01.277Z,96610.03
2023-12-04T08:36:04.988Z,96611.66
2023-12-04T08:38:08.084Z,96604.78
2023-12-04T08:40:13.872Z,96601.84
2023-12-04T08:42:21.568Z,96591.19
2023-12-04T08:44:27.141Z,96581.81
2023-12-04T08:46:30.325Z,96566.44
2023-12-04T08:48:33.949Z,96560.81
2023-12-04T08:50:38.055Z,96559.19
2023-12-04T08:52:42.729Z,96555.22
2023-12-04T08:54:45.951Z,96561.47
2023-12-04T08:56:50.437Z,96562.00
2023-12-04T08:58:53.517Z,96558.38
2023-12-04T09:00:56.465Z,96564.63
2023-12-04T09:03:08.115Z,96565.09
2023-12-04T09:05:13.861Z,96556.06
2023-12-04T09:09:23.404Z,96542.75
2023-12-04T09:11:26.365Z,96532.44
2023-12-04T09:13:32.822Z,96531.94
2023-12-04T09:15:36.075Z,96523.06
2023-12-04T09:19:43.141Z,96526.69
2023-12-04T09:21:47.009Z,96539.00
2023-12-04T09:23:51.211Z,96542.09
2023-12-04T09:25:54.576Z,96542.56
2023-12-04T09:27:57.924Z,96555.50
2023-12-04T09:30:02.314Z,96555.84
2023-12-04T09:32:04.527Z,96549.50
2023-12-04T09:34:09.286Z,96554.88
2023-12-04T09:36:12.515Z,96552.94
2023-12-04T09:38:15.487Z,96554.41
2023-12-04T09:40:18.743Z,96556.66
2023-12-04T09:42:21.897Z,96563.09
2023-12-04T09:44:26.408Z,96563.09
2023-12-04T09:46:31.585Z,96566.53
2023-12-04T09:48:36.271Z,96568.34
2023-12-04T09:50:40.600Z,96561.44
2023-12-04T09:52:43.832Z,96564.25
2023-12-04T09:54:46.796Z,96562.44
2023-12-04T09:56:51.120Z,96563.09
2023-12-04T09:59:00.075Z,96567.16
2023-12-04T10:01:03.755Z,96567.00
2023-12-04T10:03:08.362Z,96572.25
2023-12-04T10:05:10.733Z,96578.47
2023-12-04T10:07:13.997Z,96567.34
2023-12-04T10:09:19.323Z,96569.28
2023-12-04T10:11:22.920Z,96568.59
2023-12-04T10:13:55.962Z,96569.88
2023-12-04T10:15:50.089Z,96572.00
2023-12-04T10:17:53.237Z,96578.06
2023-12-04T10:20:11.912Z,96568.56
2023-12-04T10:22:15.387Z,96560.88
2023-12-04T10:24:32.788Z,96556.59
2023-12-04T10:26:35.880Z,96552.19
2023-12-04T10:28:40.010Z,96548.22
2023-12-04T10:30:43.296Z,96543.25
2023-12-04T10:32:46.206Z,96546.19
2023-12-04T10:34:50.276Z,96546.81
2023-12-04T10:36:54.961Z,96536.31
2023-12-04T10:39:01.740Z,96530.44
2023-12-04T10:41:14.603Z,96527.16
2023-12-04T10:43:18.686Z,96522.09
2023-12-04T10:45:23.761Z,96516.34
2023-12-04T10:47:27.792Z,96516.34
2023-12-04T10:49:30.982Z,96505.38
2023-12-04T10:51:35.380Z,96503.22
2023-12-04T10:53:42.159Z,96498.63
2023-12-04T10:55:47.097Z,96504.53
2023-12-04T10:57:53.766Z,96505.84
2023-12-04T10:59:59.443Z,96513.72
2023-12-04T11:02:04.770Z,96506.66
2023-12-04T11:04:12.423Z,96493.53
2023-12-04T11:06:18.908Z,96499.78
2023-12-04T11:08:24.086Z,96491.28
2023-12-04T11:10:31.716Z,96494.88
2023-12-04T11:12:34.477Z,96496.06
2023-12-04T11:14:46.283Z,96494.88
2023-12-04T11:16:51.060Z,96495.53
2023-12-04T11:19:05.854Z,96492.72
2023-12-04T11:21:11.517Z,96488.47
2023-12-04T11:23:17.085Z,96496.00
2023-12-04T11:25:20.054Z,96484.84
2023-12-04T11:27:25.369Z,96476.97
2023-12-04T11:29:29.342Z,96484.84
2023-12-04T11:31:32.639Z,96466.66
2023-12-04T11:33:38.055Z,96467.81
2023-12-04T11:35:41.222Z,96464.56
2023-12-04T11:37:44.503Z,96459.31
2023-12-04T11:39:49.247Z,96457.50
2023-12-04T11:41:52.346Z,96451.44
2023-12-04T11:43:57.242Z,96450.44
2023-12-04T11:46:10.546Z,96449.44
2023-12-04T11:48:13.650Z,96450.44
2023-12-04T11:50:17.021Z,96457.31
2023-12-04T11:52:34.881Z,96440.75
2023-12-04T11:55:01.288Z,96442.25
2023-12-04T11:57:23.668Z,96435.72
2023-12-04T11:59:28.436Z,96436.91
2023-12-04T12:01:35.501Z,96431.34
2023-12-04T12:03:39.080Z,96421.03
2023-12-04T12:05:43.412Z,96421.38
2023-12-04T12:07:45.891Z,96412.88
2023-12-04T12:09:50.159Z,96416.75
2023-12-04T12:11:54.123Z,96415.78
2023-12-04T12:13:57.325Z,96413.59
2023-12-04T12:16:03.346Z,96407.38
2023-12-04T12:18:08.705Z,96397.34
2023-12-04T12:20:14.107Z,96399.78
2023-12-04T12:22:17.266Z,96391.75
2023-12-04T12:24:20.660Z,96392.75
2023-12-04T12:26:24.257Z,96386.66
2023-12-04T12:28:27.288Z,96379.63
2023-12-04T12:30:30.242Z,96384.31
2023-12-04T12:32:35.601Z,96375.47
2023-12-04T12:34:38.589Z,96378.94
2023-12-04T12:36:42.789Z,96371.06
2023-12-04T12:38:50.611Z,96368.44
2023-12-04T12:40:53.745Z,96364.31
2023-12-04T12:43:08.431Z,96363.19
2023-12-04T12:45:13.893Z,96358.56
2023-12-04T12:47:17.435Z,96351.69
2023-12-04T12:51:28.652Z,96347.75
2023-12-04T12:53:35.032Z,96339.56
2023-12-04T12:55:40.288Z,96342.00
2023-12-04T12:57:43.602Z,96333.31
2023-12-04T12:59:46.756Z,96331.31
2023-12-04T13:01:50.504Z,96333.31
2023-12-04T13:03:53.947Z,96332.00
2023-12-04T13:05:58.719Z,96334.81
2023-12-04T13:08:01.904Z,96335.00
2023-12-04T13:10:06.211Z,96334.81
2023-12-04T13:12:11.187Z,96333.81
2023-12-04T13:14:14.527Z,96328.47
2023-12-04T13:16:17.920Z,96337.16
2023-12-04T13:18:20.866Z,96333.25
2023-12-04T13:20:24.545Z,96328.16
2023-12-04T13:22:30.259Z,96326.53
2023-12-04T13:24:33.514Z,96332.78
2023-12-04T13:26:36.584Z,96323.28
2023-12-04T13:28:44.248Z,96329.53
2023-12-04T13:30:48.100Z,96325.47
2023-12-04T13:32:51.613Z,96322.00
2023-12-04T13:34:56.557Z,96323.81
2023-12-04T13:37:00.237Z,96329.88
2023-12-04T13:39:05.459Z,96329.41
2023-12-04T13:41:40.837Z,96321.88
2023-12-04T13:43:51.612Z,96325.97
2023-12-04T13:45:56.001Z,96324.97
2023-12-04T13:47:59.179Z,96322.34
2023-12-04T13:50:02.653Z,96322.72
2023-12-04T13:52:09.261Z,96317.81
2023-12-04T13:54:21.991Z,96315.38
2023-12-04T13:56:42.678Z,96306.97
2023-12-04T13:58:46.162Z,96296.41
2023-12-04T14:00:49.169Z,96287.19
2023-12-04T14:02:54.871Z,96280.13
2023-12-04T14:04:58.158Z,96283.94
2023-12-04T14:07:04.494Z,96280.84
2023-12-04T14:09:11.586Z,96292.97
2023-12-04T14:11:16.574Z,96292.16
2023-12-04T14:13:19.919Z,96294.16
2023-12-04T14:15:23.232Z,96288.41
2023-12-04T14:17:26.172Z,96289.88
2023-12-04T14:19:29.244Z,96280.03
2023-12-04T14:21:32.167Z,96282.00
2023-12-04T14:23:35.385Z,96290.53
2023-12-04T14:25:38.426Z,96280.03
2023-12-04T14:27:44.517Z,96281.47
2023-12-04T14:29:47.466Z,96280.47
2023-12-04T14:31:51.372Z,96275.25
2023-12-04T14:33:54.915Z,96275.25
2023-12-04T14:35:58.251Z,96283.66
2023-12-04T14:38:01.292Z,96268.72
2023-12-04T14:40:05.740Z,96259.84
2023-12-04T14:42:08.973Z,96260.13
2023-12-04T14:44:12.318Z,96264.56
2023-12-04T14:46:15.281Z,96265.28
2023-12-04T14:48:18.171Z,96267.59
2023-12-04T14:50:21.828Z,96250.25
2023-12-04T14:52:24.777Z,96239.56
2023-12-04T14:54:38.733Z,96226.91
2023-12-04T14:57:01.160Z,96228.69
2023-12-04T14:59:20.978Z,96236.94
2023-12-04T15:04:47.218Z,96248.78
2023-12-04T15:07:22.345Z,96247.78
2023-12-04T15:10:07.600Z,96244.34
2023-12-04T15:12:23.537Z,96229.59
2023-12-04T15:14:37.259Z,96221.38
2023-12-04T15:16:46.304Z,96218.13
2023-12-04T15:19:15.658Z,96223.69
2023-12-04T15:21:19.283Z,96228.94
2023-12-04T15:23:22.404Z,96215.16
2023-12-04T15:25:25.048Z,96217.78
2023-12-04T15:27:27.997Z,96219.75
2023-12-04T15:29:31.415Z,96210.50
2023-12-04T15:31:34.562Z,96210.88
2023-12-04T15:33:36.766Z,96221.75
2023-12-04T15:35:39.592Z,96219.75
2023-12-04T15:37:42.782Z,96210.50
2023-12-04T15:39:45.633Z,96195.41
2023-12-04T15:41:47.649Z,96185.56
2023-12-04T15:43:50.529Z,96178.69
2023-12-04T15:45:52.518Z,96182.28
2023-12-04T15:47:55.524Z,96192.97
2023-12-04T15:49:59.191Z,96199.22
2023-12-04T15:52:02.158Z,96186.72
2023-12-04T15:54:07.141Z,96183.13
2023-12-04T15:56:11.107Z,96177.69
2023-12-04T15:58:13.167Z,96191.97
2023-12-04T16:00:17.224Z,96178.03
2023-12-04T16:02:19.786Z,96179.66
2023-12-04T16:04:22.851Z,96174.91
2023-12-04T16:06:25.933Z,96171.28
2023-12-04T16:08:28.957Z,96173.53
2023-12-04T16:10:33.182Z,96163.47
2023-12-04T16:12:36.285Z,96163.47
2023-12-04T16:14:39.219Z,96163.13
2023-12-04T16:16:42.113Z,96161.78
2023-12-04T16:18:45.298Z,96161.78
2023-12-04T16:20:48.732Z,96167.56
2023-12-04T16:22:50.695Z,96174.63
2023-12-04T16:24:53.689Z,96166.38
2023-12-04T16:26:58.086Z,96163.75
2023-12-04T16:29:02.263Z,96160.78
2023-12-04T16:31:07.200Z,96153.34
2023-12-04T16:33:11.025Z,96149.56
2023-12-04T16:35:14.097Z,96150.19
2023-12-04T16:37:17.283Z,96147.38
2023-12-04T16:39:20.119Z,96146.38
2023-12-04T16:41:22.978Z,96143.75
2023-12-04T16:43:27.255Z,96135.88
2023-12-04T16:45:30.179Z,96147.56
2023-12-04T16:47:33.327Z,96136.25
2023-12-04T16:49:36.500Z,96137.06
2023-12-04T16:51:40.245Z,96131.81
2023-12-04T16:53:43.294Z,96136.69
2023-12-04T16:55:46.314Z,96116.97
2023-12-04T16:57:49.442Z,96114.97
2023-12-04T16:59:53.920Z,96107.72
2023-12-04T17:01:58.180Z,96107.72
2023-12-04T17:04:01.277Z,96105.72
2023-12-04T17:06:05.013Z,96103.72
2023-12-04T17:08:08.100Z,96106.16
2023-12-04T17:10:11.536Z,96104.19
2023-12-04T17:12:13.929Z,96098.28
2023-12-04T17:14:17.884Z,96096.84
2023-12-04T17:16:22.292Z,96098.47
2023-12-04T17:18:25.158Z,96115.59
2023-12-04T17:20:28.318Z,96100.84
2023-12-04T17:22:33.979Z,96102.66
2023-12-04T17:24:36.971Z,96104.47
2023-12-04T17:26:39.880Z,96098.22
2023-12-04T17:28:42.672Z,96101.66
2023-12-04T17:30:45.521Z,96107.34
2023-12-04T17:32:50.189Z,96087.97
2023-12-04T17:34:53.250Z,96101.72
2023-12-04T17:36:56.302Z,96110.59
2023-12-04T17:38:59.095Z,96108.97
2023-12-04T17:41:02.038Z,96100.09
2023-12-04T17:43:04.891Z,96093.59
2023-12-04T17:45:09.555Z,96095.84
2023-12-04T17:47:13.144Z,96093.69
2023-12-04T17:49:17.779Z,96098.75
2023-12-04T17:51:20.827Z,96096.13
2023-12-04T17:53:23.652Z,96097.75
2023-12-04T17:55:26.519Z,96086.63
2023-12-04T17:57:29.454Z,96082.00
2023-12-04T17:59:31.444Z,96088.69
2023-12-04T18:01:34.301Z,96080.63
2023-12-04T18:03:37.494Z,96086.50
2023-12-04T18:05:41.487Z,96091.41
2023-12-04T18:07:45.045Z,96087.56
2023-12-04T18:09:47.838Z,96075.25
2023-12-04T18:11:53.013Z,96077.69
2023-12-04T18:13:55.029Z,96084.75
2023-12-04T18:15:58.434Z,96079.94
2023-12-04T18:18:01.664Z,96080.13
2023-12-04T18:20:04.933Z,96076.50
2023-12-04T18:22:09.099Z,96085.00
2023-12-04T18:24:11.924Z,96097.13
2023-12-04T18:26:16.069Z,96096.16
2023-12-04T18:28:19.486Z,96098.78
2023-12-04T18:30:23.185Z,96096.16
2023-12-04T18:32:25.739Z,96103.66
2023-12-04T18:34:29.344Z,96106.91
2023-12-04T18:36:37.395Z,96102.47
2023-12-04T18:38:51.780Z,96100.47
2023-12-04T18:40:54.304Z,96097.66
2023-12-04T18:43:00.359Z,96094.03
2023-12-04T18:45:03.929Z,96089.78
2023-12-04T18:47:10.574Z,96094.03
2023-12-04T18:49:14.750Z,96093.06
2023-12-04T18:51:18.896Z,96094.47
2023-12-04T18:53:21.330Z,96083.16
2023-12-04T18:55:25.483Z,96084.78
2023-12-04T18:57:28.328Z,96086.41
2023-12-04T18:59:31.157Z,96073.91
2023-12-04T19:01:36.022Z,96072.09
2023-12-04T19:03:39.071Z,96068.44
2023-12-04T19:05:42.012Z,96061.38
2023-12-04T19:07:44.872Z,96072.69
2023-12-04T19:09:47.770Z,96068.25
2023-12-04T19:11:51.015Z,96067.25
2023-12-04T19:13:53.999Z,96067.09
2023-12-04T19:15:57.660Z,96070.72
2023-12-04T19:18:00.706Z,96072.34
2023-12-04T19:20:02.938Z,96072.16
2023-12-04T19:22:05.918Z,96067.91
2023-12-04T19:24:09.370Z,96070.34
2023-12-04T19:26:12.253Z,96071.16
2023-12-04T19:28:15.458Z,96063.06
2023-12-04T19:30:18.491Z,96072.59
2023-12-04T19:32:22.832Z,96065.50
2023-12-04T19:34:26.890Z,96063.50
2023-12-04T19:36:29.837Z,96067.13
2023-12-04T19:38:32.728Z,96076.66
2023-12-04T19:40:35.575Z,96067.94
2023-12-04T19:42:39.266Z,96076.44
2023-12-04T19:44:46.757Z,96078.47
2023-12-04T19:46:49.522Z,96092.06
2023-12-04T19:48:51.825Z,96101.56
2023-12-04T19:50:56.844Z,96096.31
2023-12-04T19:52:59.882Z,96091.06
2023-12-04T19:55:02.880Z,96091.06
2023-12-04T19:57:05.915Z,96082.97
2023-12-04T19:59:08.707Z,96075.91
2023-12-04T20:01:13.655Z,96071.66
2023-12-04T20:03:16.731Z,96084.78
2023-12-04T20:05:20.683Z,96090.66
2023-12-04T20:07:23.795Z,96093.31
2023-12-04T20:09:26.699Z,96098.19
2023-12-04T20:11:29.669Z,96097.97
2023-12-04T20:13:35.468Z,96105.06
2023-12-04T20:15:38.764Z,96106.06
2023-12-04T20:17:43.626Z,96105.25
2023-12-04T20:19:46.448Z,96102.44
2023-12-04T20:21:48.374Z,96097.16
2023-12-04T20:23:51.437Z,96095.16
2023-12-04T20:25:54.264Z,96091.72
2023-12-04T20:27:57.526Z,96086.31
2023-12-04T20:30:00.501Z,96083.66
2023-12-04T20:32:03.436Z,96081.03
2023-12-04T20:34:07.807Z,96090.56
2023-12-04T20:36:13.806Z,96090.34
2023-12-04T20:38:17.090Z,96091.97
2023-12-04T20:40:22.060Z,96083.09
2023-12-04T20:42:24.971Z,96088.34
2023-12-04T20:44:27.831Z,96099.69
2023-12-04T20:46:30.644Z,96103.50
2023-12-04T20:48:32.970Z,96110.38
2023-12-04T20:50:37.508Z,96104.31
2023-12-04T20:52:40.526Z,96109.19
2023-12-04T20:54:43.459Z,96108.38
2023-12-04T20:56:46.278Z,96114.44
2023-12-04T20:58:49.085Z,96102.94
2023-12-04T21:00:51.032Z,96102.94
2023-12-04T21:02:53.944Z,96102.94
2023-12-04T21:04:57.035Z,96096.03
2023-12-04T21:07:03.402Z,96108.19
2023-12-04T21:09:07.498Z,96097.66
2023-12-04T21:11:10.516Z,96098.47
2023-12-04T21:13:13.336Z,96089.78
2023-12-04T21:15:16.284Z,96098.47
2023-12-04T21:17:19.322Z,96093.22
2023-12-04T21:19:22.560Z,96093.41
2023-12-04T21:21:25.507Z,96084.53
2023-12-04T21:23:29.730Z,96085.16
2023-12-04T21:25:32.631Z,96085.16
2023-12-04T21:27:35.598Z,96073.00
2023-12-04T21:29:38.589Z,96074.00
2023-12-04T21:31:41.499Z,96077.63
2023-12-04T21:33:44.706Z,96082.91
2023-12-04T21:35:46.575Z,96083.53
